MDT,Max TemperatureF,Mean TemperatureF,Min TemperatureF,Max Dew PointF,MeanDew PointF,Min DewpointF,Max Humidity, Mean Humidity, Min Humidity, Max Sea Level PressureIn, Mean Sea Level PressureIn, Min Sea Level PressureIn, Max VisibilityMiles, Mean VisibilityMiles, Min VisibilityMiles, Max Wind SpeedMPH, Mean Wind SpeedMPH, Max Gust SpeedMPH,PrecipitationIn, CloudCover, Events, WindDirDegrees
2012-10-1,70,52,33,32,29,25,78,46,22,30.42,30.20,30.05,10,10,10,10,5,17,0.00,0,,346
2012-10-2,73,50,28,26,23,18,74,39,13,30.24,29.97,29.78,10,10,10,16,5,26,0.00,0,,276
2012-10-3,63,45,28,24,11,-3,66,26,8,30.19,29.92,29.75,10,10,10,23,7,33,0.00,0,,321
2012-10-4,48,34,19,19,17,13,85,54,27,30.32,30.19,30.07,10,10,10,12,7,,0.00,0,,190
2012-10-5,53,36,21,19,11,1,68,40,13,30.24,30.14,30.03,10,10,9,16,6,18,0.00,1,,338
2012-10-6,44,28,14,17,12,4,88,53,27,30.38,30.25,30.17,10,10,10,9,6,,0.00,1,,208
2012-10-7,55,32,10,13,7,0,67,39,16,30.31,30.18,30.07,10,10,10,9,4,,0.00,0,,231
2012-10-8,64,40,16,10,7,4,65,30,10,30.10,29.98,29.85,10,10,9,21,5,25,0.00,0,,318
2012-10-9,64,44,24,17,11,4,46,31,15,30.08,29.98,29.89,10,10,8,21,6,26,0.00,0,,359
2012-10-10,71,44,19,20,16,10,68,39,13,30.17,30.02,29.90,10,10,9,18,5,23,0.00,0,,335
2012-10-11,69,51,33,28,23,17,53,38,21,30.08,29.96,29.88,10,10,10,12,5,,0.00,2,,95
2012-10-12,63,46,30,39,28,20,77,54,27,30.09,29.91,29.80,10,10,10,17,5,24,0.00,4,,163
2012-10-13,57,42,26,36,31,24,100,75,37,30.32,30.06,29.84,10,8,0,24,6,33,0.00,4,Fog,335
2012-10-14,64,48,32,34,28,23,85,56,22,30.32,30.21,30.11,10,10,10,13,7,17,0.00,1,,316
2012-10-15,62,46,30,31,28,23,82,57,31,30.14,30.04,29.94,10,10,10,24,6,34,0.00,1,,355
2012-10-16,60,46,34,42,30,17,86,59,37,29.99,29.77,29.63,10,10,7,25,9,40,0.08,4,Rain,295
2012-10-17,46,36,25,18,13,5,61,42,20,30.15,30.02,29.77,10,10,10,24,14,32,0.00,0,,344
2012-10-18,57,38,19,23,18,13,74,46,22,30.30,30.19,30.11,10,10,10,22,9,31,0.00,0,,322
2012-10-19,63,42,21,25,21,18,85,51,21,30.17,30.03,29.85,10,10,10,15,5,23,0.00,2,,89
2012-10-20,64,50,36,30,25,21,73,42,22,29.86,29.70,29.59,10,10,10,30,8,43,0.00,4,,249
2012-10-21,52,44,37,34,30,25,76,59,38,29.90,29.74,29.63,10,10,10,18,3,,0.00,7,,21
2012-10-22,54,44,35,42,37,26,100,85,54,29.88,29.72,29.54,10,9,5,23,7,31,0.09,7,Rain,269
2012-10-23,39,34,28,37,29,24,96,88,79,29.94,29.81,29.60,10,7,1,21,9,28,0.04,8,Rain-Snow,338
2012-10-24,37,29,21,25,21,15,93,79,44,30.11,29.98,29.92,10,6,1,12,6,16,0.00,6,Snow,34
2012-10-25,36,26,18,21,18,14,100,79,51,30.36,30.18,30.09,10,10,4,18,3,,0.00,5,Snow,352
2012-10-26,36,23,12,20,13,9,85,66,38,30.50,30.34,30.19,10,10,10,15,5,,0.00,2,,281
2012-10-27,45,30,17,27,22,15,93,75,35,30.21,30.14,30.06,10,8,1,14,3,22,0.00,5,Snow,25
2012-10-28,55,40,25,35,30,23,92,67,41,30.16,30.10,30.03,10,10,10,22,5,37,T,5,,343
2012-10-29,59,44,30,36,31,27,96,68,34,30.19,30.11,30.04,10,10,10,18,4,21,0.00,2,,31
2012-10-30,61,43,26,31,25,21,89,65,23,30.26,30.19,30.08,10,10,10,16,4,,0.00,0,,10
2012-10-31,55,40,25,30,25,19,92,67,41,30.29,30.17,30.06,10,10,10,22,5,37,T,0,,109